sensor_id;sensor_type;location;lat;lon;timestamp;pressure;altitude;pressure_sealevel;temperature;humidity
34237;BME280;20501;45.956;13.632;2023-05-09T00:03:58;100986.88;;;15.36;68.14
34237;BME280;20501;45.956;13.632;2023-05-09T00:06:24;100982.97;;;15.39;66.52
34237;BME280;20501;45.956;13.632;2023-05-09T00:08:53;100985.84;;;15.37;68.85
34237;BME280;20501;45.956;13.632;2023-05-09T00:11:19;100984.47;;;15.33;70.37
34237;BME280;20501;45.956;13.632;2023-05-09T00:13:46;100970.06;;;15.49;70.50
34237;BME280;20501;45.956;13.632;2023-05-09T00:16:12;100974.78;;;15.04;68.09
34237;BME280;20501;45.956;13.632;2023-05-09T00:18:38;100958.66;;;15.11;66.10
34237;BME280;20501;45.956;13.632;2023-05-09T00:21:06;100956.94;;;15.10;65.55
34237;BME280;20501;45.956;13.632;2023-05-09T00:23:32;100949.13;;;15.15;66.71
34237;BME280;20501;45.956;13.632;2023-05-09T00:25:58;100955.66;;;15.22;67.78
34237;BME280;20501;45.956;13.632;2023-05-09T00:28:23;100955.31;;;15.25;65.95
34237;BME280;20501;45.956;13.632;2023-05-09T00:30:49;100952.53;;;15.43;69.98
34237;BME280;20501;45.956;13.632;2023-05-09T00:33:15;100944.97;;;15.29;65.33
34237;BME280;20501;45.956;13.632;2023-05-09T00:35:40;100947.34;;;15.24;66.55
34237;BME280;20501;45.956;13.632;2023-05-09T00:38:05;100950.16;;;15.14;68.24
34237;BME280;20501;45.956;13.632;2023-05-09T00:40:31;100949.44;;;15.12;69.56
34237;BME280;20501;45.956;13.632;2023-05-09T00:42:58;100955.69;;;15.30;72.17
34237;BME280;20501;45.956;13.632;2023-05-09T00:45:23;100950.66;;;15.44;72.46
34237;BME280;20501;45.956;13.632;2023-05-09T00:47:49;100958.53;;;14.68;73.51
34237;BME280;20501;45.956;13.632;2023-05-09T00:50:14;100944.16;;;14.39;75.12
34237;BME280;20501;45.956;13.632;2023-05-09T00:52:40;100949.03;;;14.72;74.57
34237;BME280;20501;45.956;13.632;2023-05-09T00:55:07;100942.75;;;14.72;72.50
34237;BME280;20501;45.956;13.632;2023-05-09T00:57:33;100942.47;;;15.09;74.90
34237;BME280;20501;45.956;13.632;2023-05-09T00:59:59;100937.66;;;15.29;74.13
34237;BME280;20501;45.956;13.632;2023-05-09T01:02:25;100942.19;;;15.55;73.09
34237;BME280;20501;45.956;13.632;2023-05-09T01:04:51;100940.53;;;15.62;72.01
34237;BME280;20501;45.956;13.632;2023-05-09T01:12:53;100933.00;;;15.13;73.48
34237;BME280;20501;45.956;13.632;2023-05-09T01:15:28;100936.66;;;15.30;74.16
34237;BME280;20501;45.956;13.632;2023-05-09T01:18:05;100934.38;;;14.91;74.24
34237;BME280;20501;45.956;13.632;2023-05-09T01:20:43;100933.34;;;15.19;73.73
34237;BME280;20501;45.956;13.632;2023-05-09T01:26:01;100923.56;;;15.34;74.32
34237;BME280;20501;45.956;13.632;2023-05-09T01:28:40;100923.56;;;14.99;73.65
34237;BME280;20501;45.956;13.632;2023-05-09T01:31:11;100917.16;;;14.64;75.52
34237;BME280;20501;45.956;13.632;2023-05-09T01:33:38;100904.84;;;14.70;75.49
34237;BME280;20501;45.956;13.632;2023-05-09T01:36:08;100919.19;;;15.07;75.62
34237;BME280;20501;45.956;13.632;2023-05-09T01:38:36;100909.78;;;15.36;74.31
34237;BME280;20501;45.956;13.632;2023-05-09T01:41:04;100905.66;;;14.97;76.05
34237;BME280;20501;45.956;13.632;2023-05-09T01:43:32;100910.84;;;15.08;74.99
34237;BME280;20501;45.956;13.632;2023-05-09T01:45:58;100909.25;;;15.32;74.65
34237;BME280;20501;45.956;13.632;2023-05-09T01:48:25;100905.75;;;15.48;74.09
34237;BME280;20501;45.956;13.632;2023-05-09T01:50:52;100909.97;;;14.99;75.50
34237;BME280;20501;45.956;13.632;2023-05-09T01:53:18;100912.66;;;15.26;74.85
34237;BME280;20501;45.956;13.632;2023-05-09T01:55:46;100908.59;;;15.04;75.53
34237;BME280;20501;45.956;13.632;2023-05-09T01:58:14;100905.16;;;14.93;76.47
34237;BME280;20501;45.956;13.632;2023-05-09T02:00:41;100896.44;;;14.63;73.33
34237;BME280;20501;45.956;13.632;2023-05-09T02:03:08;100897.69;;;14.95;76.25
34237;BME280;20501;45.956;13.632;2023-05-09T02:05:33;100898.19;;;15.33;73.07
34237;BME280;20501;45.956;13.632;2023-05-09T02:08:00;100897.19;;;15.00;71.06
34237;BME280;20501;45.956;13.632;2023-05-09T02:10:26;100888.97;;;14.83;72.67
34237;BME280;20501;45.956;13.632;2023-05-09T02:12:53;100892.03;;;15.23;74.81
34237;BME280;20501;45.956;13.632;2023-05-09T02:15:19;100897.75;;;15.46;74.33
34237;BME280;20501;45.956;13.632;2023-05-09T02:17:45;100897.97;;;15.53;73.72
34237;BME280;20501;45.956;13.632;2023-05-09T02:20:11;100905.25;;;15.10;72.91
34237;BME280;20501;45.956;13.632;2023-05-09T02:22:39;100904.44;;;14.91;73.66
34237;BME280;20501;45.956;13.632;2023-05-09T02:25:06;100913.53;;;14.74;74.46
34237;BME280;20501;45.956;13.632;2023-05-09T02:27:33;100909.03;;;15.17;73.20
34237;BME280;20501;45.956;13.632;2023-05-09T02:30:02;100912.22;;;15.12;75.58
34237;BME280;20501;45.956;13.632;2023-05-09T02:32:30;100914.09;;;15.12;74.31
34237;BME280;20501;45.956;13.632;2023-05-09T02:34:57;100909.84;;;14.65;76.25
34237;BME280;20501;45.956;13.632;2023-05-09T02:37:24;100905.00;;;14.50;74.75
34237;BME280;20501;45.956;13.632;2023-05-09T02:39:50;100907.84;;;15.20;75.13
34237;BME280;20501;45.956;13.632;2023-05-09T02:42:20;100901.91;;;14.90;74.04
34237;BME280;20501;45.956;13.632;2023-05-09T02:44:46;100902.09;;;14.26;75.49
34237;BME280;20501;45.956;13.632;2023-05-09T02:47:12;100909.97;;;14.99;75.99
34237;BME280;20501;45.956;13.632;2023-05-09T02:49:37;100915.44;;;14.81;73.62
34237;BME280;20501;45.956;13.632;2023-05-09T02:52:03;100908.75;;;15.28;74.66
34237;BME280;20501;45.956;13.632;2023-05-09T02:54:30;100908.53;;;15.22;72.59
34237;BME280;20501;45.956;13.632;2023-05-09T02:56:55;100912.00;;;14.17;77.85
34237;BME280;20501;45.956;13.632;2023-05-09T02:59:20;100901.94;;;14.72;76.79
34237;BME280;20501;45.956;13.632;2023-05-09T03:01:46;100908.78;;;15.02;75.41
34237;BME280;20501;45.956;13.632;2023-05-09T03:04:12;100914.88;;;15.30;74.83
34237;BME280;20501;45.956;13.632;2023-05-09T03:06:37;100910.53;;;15.11;72.77
34237;BME280;20501;45.956;13.632;2023-05-09T03:09:03;100919.63;;;14.13;78.48
34237;BME280;20501;45.956;13.632;2023-05-09T03:11:28;100917.44;;;14.17;77.49
34237;BME280;20501;45.956;13.632;2023-05-09T03:13:55;100914.84;;;14.96;76.25
34237;BME280;20501;45.956;13.632;2023-05-09T03:16:20;100908.13;;;15.08;74.29
34237;BME280;20501;45.956;13.632;2023-05-09T03:18:46;100916.91;;;15.28;74.69
34237;BME280;20501;45.956;13.632;2023-05-09T03:21:11;100923.34;;;14.93;74.69
34237;BME280;20501;45.956;13.632;2023-05-09T03:23:38;100912.03;;;14.79;76.03
34237;BME280;20501;45.956;13.632;2023-05-09T03:26:03;100912.28;;;14.94;75.60
34237;BME280;20501;45.956;13.632;2023-05-09T03:28:29;100913.91;;;15.40;74.33
34237;BME280;20501;45.956;13.632;2023-05-09T03:30:55;100918.44;;;15.31;73.21
34237;BME280;20501;45.956;13.632;2023-05-09T03:33:20;100917.03;;;14.92;74.75
34237;BME280;20501;45.956;13.632;2023-05-09T03:35:45;100918.94;;;15.26;74.58
34237;BME280;20501;45.956;13.632;2023-05-09T03:38:11;100918.59;;;15.21;74.91
34237;BME280;20501;45.956;13.632;2023-05-09T03:40:36;100918.00;;;15.09;75.61
34237;BME280;20501;45.956;13.632;2023-05-09T03:43:02;100920.50;;;14.58;78.06
34237;BME280;20501;45.956;13.632;2023-05-09T03:45:27;100916.75;;;14.33;78.91
34237;BME280;20501;45.956;13.632;2023-05-09T03:47:53;100915.91;;;14.32;75.64
34237;BME280;20501;45.956;13.632;2023-05-09T03:50:18;100915.91;;;14.14;76.44
34237;BME280;20501;45.956;13.632;2023-05-09T03:52:43;100918.13;;;14.55;76.37
34237;BME280;20501;45.956;13.632;2023-05-09T03:55:09;100917.38;;;14.89;76.26
34237;BME280;20501;45.956;13.632;2023-05-09T03:57:34;100916.59;;;15.31;74.93
34237;BME280;20501;45.956;13.632;2023-05-09T04:00:01;100907.06;;;15.36;72.16
34237;BME280;20501;45.956;13.632;2023-05-09T04:02:26;100915.44;;;15.08;74.89
34237;BME280;20501;45.956;13.632;2023-05-09T04:04:52;100908.19;;;15.16;74.72
34237;BME280;20501;45.956;13.632;2023-05-09T04:07:18;100914.34;;;15.27;74.34
34237;BME280;20501;45.956;13.632;2023-05-09T04:09:44;100911.50;;;14.76;74.42
34237;BME280;20501;45.956;13.632;2023-05-09T04:12:10;100910.69;;;15.10;75.24
34237;BME280;20501;45.956;13.632;2023-05-09T04:14:35;100911.56;;;15.19;74.93
34237;BME280;20501;45.956;13.632;2023-05-09T04:17:01;100921.50;;;15.01;74.82
34237;BME280;20501;45.956;13.632;2023-05-09T04:19:26;100917.69;;;15.12;74.83
34237;BME280;20501;45.956;13.632;2023-05-09T04:21:51;100919.91;;;15.17;74.50
34237;BME280;20501;45.956;13.632;2023-05-09T04:24:17;100913.25;;;14.85;75.38
34237;BME280;20501;45.956;13.632;2023-05-09T04:26:42;100922.72;;;15.07;75.17
34237;BME280;20501;45.956;13.632;2023-05-09T04:29:08;100927.25;;;15.25;74.74
34237;BME280;20501;45.956;13.632;2023-05-09T04:31:33;100930.44;;;15.46;74.03
34237;BME280;20501;45.956;13.632;2023-05-09T04:33:59;100926.03;;;15.54;73.53
34237;BME280;20501;45.956;13.632;2023-05-09T04:36:24;100927.53;;;14.43;76.80
34237;BME280;20501;45.956;13.632;2023-05-09T04:38:51;100925.91;;;14.32;76.64
34237;BME280;20501;45.956;13.632;2023-05-09T04:41:17;100921.34;;;14.32;77.21
34237;BME280;20501;45.956;13.632;2023-05-09T04:43:43;100914.91;;;14.33;77.88
34237;BME280;20501;45.956;13.632;2023-05-09T04:46:08;100916.50;;;14.26;79.00
34237;BME280;20501;45.956;13.632;2023-05-09T04:48:34;100925.53;;;14.89;76.73
34237;BME280;20501;45.956;13.632;2023-05-09T04:51:00;100930.50;;;14.67;77.37
34237;BME280;20501;45.956;13.632;2023-05-09T04:53:26;100935.22;;;15.18;75.56
34237;BME280;20501;45.956;13.632;2023-05-09T04:55:52;100934.63;;;15.32;74.58
34237;BME280;20501;45.956;13.632;2023-05-09T04:58:18;100933.97;;;14.42;77.24
34237;BME280;20501;45.956;13.632;2023-05-09T05:00:44;100952.19;;;15.12;75.57
34237;BME280;20501;45.956;13.632;2023-05-09T05:03:11;100953.84;;;15.05;75.31
34237;BME280;20501;45.956;13.632;2023-05-09T05:05:36;100945.09;;;15.19;75.38
34237;BME280;20501;45.956;13.632;2023-05-09T05:08:02;100949.81;;;15.09;75.99
34237;BME280;20501;45.956;13.632;2023-05-09T05:10:27;100947.09;;;14.28;78.03
34237;BME280;20501;45.956;13.632;2023-05-09T05:12:54;100944.38;;;14.28;78.52
34237;BME280;20501;45.956;13.632;2023-05-09T05:15:20;100958.97;;;14.27;78.96
34237;BME280;20501;45.956;13.632;2023-05-09T05:17:45;100959.56;;;14.93;76.37
34237;BME280;20501;45.956;13.632;2023-05-09T05:20:11;100966.44;;;15.06;76.51
34237;BME280;20501;45.956;13.632;2023-05-09T05:22:36;100961.63;;;14.37;76.83
34237;BME280;20501;45.956;13.632;2023-05-09T05:25:01;100962.53;;;14.64;76.55
34237;BME280;20501;45.956;13.632;2023-05-09T05:27:30;100966.00;;;15.19;75.58
34237;BME280;20501;45.956;13.632;2023-05-09T05:29:55;100970.47;;;15.01;76.54
34237;BME280;20501;45.956;13.632;2023-05-09T05:32:21;100963.88;;;14.78;75.54
34237;BME280;20501;45.956;13.632;2023-05-09T05:34:46;100962.06;;;14.86;74.26
34237;BME280;20501;45.956;13.632;2023-05-09T05:37:12;100962.94;;;14.69;76.15
34237;BME280;20501;45.956;13.632;2023-05-09T05:39:37;100950.81;;;14.81;76.10
34237;BME280;20501;45.956;13.632;2023-05-09T05:42:03;100961.25;;;14.94;75.31
34237;BME280;20501;45.956;13.632;2023-05-09T05:44:28;100951.81;;;14.80;75.23
34237;BME280;20501;45.956;13.632;2023-05-09T05:46:53;100952.03;;;14.87;75.58
34237;BME280;20501;45.956;13.632;2023-05-09T05:49:19;100961.28;;;14.76;75.73
34237;BME280;20501;45.956;13.632;2023-05-09T05:51:44;100954.91;;;14.85;74.51
34237;BME280;20501;45.956;13.632;2023-05-09T05:54:10;100961.38;;;14.84;74.74
34237;BME280;20501;45.956;13.632;2023-05-09T05:56:35;100964.25;;;15.09;74.91
34237;BME280;20501;45.956;13.632;2023-05-09T05:59:01;100966.59;;;15.30;73.71
34237;BME280;20501;45.956;13.632;2023-05-09T06:01:26;100964.28;;;15.17;73.23
34237;BME280;20501;45.956;13.632;2023-05-09T06:03:52;100965.22;;;15.35;73.50
34237;BME280;20501;45.956;13.632;2023-05-09T06:06:23;100958.63;;;15.37;72.69
34237;BME280;20501;45.956;13.632;2023-05-09T06:08:48;100967.66;;;15.46;71.63
34237;BME280;20501;45.956;13.632;2023-05-09T06:11:15;100959.38;;;15.47;68.84
34237;BME280;20501;45.956;13.632;2023-05-09T06:13:40;100958.69;;;15.19;71.63
34237;BME280;20501;45.956;13.632;2023-05-09T06:16:06;100959.53;;;15.20;70.11
34237;BME280;20501;45.956;13.632;2023-05-09T06:18:35;100957.66;;;15.46;73.49
34237;BME280;20501;45.956;13.632;2023-05-09T06:21:07;100958.06;;;15.33;67.33
34237;BME280;20501;45.956;13.632;2023-05-09T06:23:33;100947.81;;;15.54;72.76
34237;BME280;20501;45.956;13.632;2023-05-09T06:26:01;100948.75;;;15.36;67.68
34237;BME280;20501;45.956;13.632;2023-05-09T06:28:26;100951.09;;;15.31;67.47
34237;BME280;20501;45.956;13.632;2023-05-09T06:30:52;100951.84;;;15.50;72.51
34237;BME280;20501;45.956;13.632;2023-05-09T06:33:17;100954.25;;;15.53;68.92
34237;BME280;20501;45.956;13.632;2023-05-09T06:35:42;100954.72;;;15.40;66.32
34237;BME280;20501;45.956;13.632;2023-05-09T06:38:08;100956.44;;;15.41;66.43
34237;BME280;20501;45.956;13.632;2023-05-09T06:40:33;100946.19;;;15.35;65.74
34237;BME280;20501;45.956;13.632;2023-05-09T06:42:59;100946.72;;;15.38;66.75
34237;BME280;20501;45.956;13.632;2023-05-09T06:45:24;100943.84;;;15.40;68.87
34237;BME280;20501;45.956;13.632;2023-05-09T06:47:51;100952.97;;;15.30;67.68
34237;BME280;20501;45.956;13.632;2023-05-09T06:50:16;100953.13;;;15.29;65.78
34237;BME280;20501;45.956;13.632;2023-05-09T06:52:42;100963.94;;;15.47;68.88
34237;BME280;20501;45.956;13.632;2023-05-09T06:55:08;100959.78;;;15.35;66.92
34237;BME280;20501;45.956;13.632;2023-05-09T06:57:33;100963.63;;;15.50;66.77
34237;BME280;20501;45.956;13.632;2023-05-09T06:59:59;100958.53;;;15.55;67.83
34237;BME280;20501;45.956;13.632;2023-05-09T07:02:24;100949.63;;;15.45;66.76
34237;BME280;20501;45.956;13.632;2023-05-09T07:04:50;100951.75;;;15.59;66.24
34237;BME280;20501;45.956;13.632;2023-05-09T07:07:15;100944.78;;;15.65;63.75
34237;BME280;20501;45.956;13.632;2023-05-09T07:09:41;100961.31;;;15.63;65.09
34237;BME280;20501;45.956;13.632;2023-05-09T07:12:06;100959.94;;;15.68;66.65
34237;BME280;20501;45.956;13.632;2023-05-09T07:14:32;100949.75;;;15.70;67.18
34237;BME280;20501;45.956;13.632;2023-05-09T07:16:57;100950.41;;;15.63;62.48
34237;BME280;20501;45.956;13.632;2023-05-09T07:19:23;100946.16;;;15.69;62.07
34237;BME280;20501;45.956;13.632;2023-05-09T07:21:48;100942.59;;;15.69;63.12
34237;BME280;20501;45.956;13.632;2023-05-09T07:24:13;100943.47;;;15.77;62.22
34237;BME280;20501;45.956;13.632;2023-05-09T07:26:39;100933.09;;;15.81;62.75
34237;BME280;20501;45.956;13.632;2023-05-09T07:29:04;100935.84;;;15.89;60.83
34237;BME280;20501;45.956;13.632;2023-05-09T07:31:30;100927.03;;;15.87;60.88
34237;BME280;20501;45.956;13.632;2023-05-09T07:33:55;100924.97;;;15.89;60.39
34237;BME280;20501;45.956;13.632;2023-05-09T07:36:21;100930.41;;;15.89;59.99
34237;BME280;20501;45.956;13.632;2023-05-09T07:38:46;100938.94;;;15.86;59.36
34237;BME280;20501;45.956;13.632;2023-05-09T07:41:13;100934.84;;;15.90;59.33
34237;BME280;20501;45.956;13.632;2023-05-09T07:43:38;100932.81;;;15.92;60.22
34237;BME280;20501;45.956;13.632;2023-05-09T07:46:04;100932.31;;;15.97;59.45
34237;BME280;20501;45.956;13.632;2023-05-09T07:48:29;100934.38;;;16.03;59.78
34237;BME280;20501;45.956;13.632;2023-05-09T07:50:54;100930.78;;;16.03;58.92
34237;BME280;20501;45.956;13.632;2023-05-09T07:53:20;100922.63;;;16.03;59.90
34237;BME280;20501;45.956;13.632;2023-05-09T07:55:45;100921.78;;;16.19;60.51
34237;BME280;20501;45.956;13.632;2023-05-09T07:58:14;100924.00;;;16.23;59.86
34237;BME280;20501;45.956;13.632;2023-05-09T08:00:39;100924.88;;;16.24;59.55
34237;BME280;20501;45.956;13.632;2023-05-09T08:03:05;100934.75;;;16.25;59.93
34237;BME280;20501;45.956;13.632;2023-05-09T08:05:30;100930.81;;;16.28;60.67
34237;BME280;20501;45.956;13.632;2023-05-09T08:07:55;100934.75;;;16.25;61.70
34237;BME280;20501;45.956;13.632;2023-05-09T08:10:21;100933.72;;;16.34;59.43
34237;BME280;20501;45.956;13.632;2023-05-09T08:12:47;100921.81;;;16.35;59.52
34237;BME280;20501;45.956;13.632;2023-05-09T08:15:13;100929.66;;;16.55;59.06
34237;BME280;20501;45.956;13.632;2023-05-09T08:17:38;100927.59;;;16.49;58.93
34237;BME280;20501;45.956;13.632;2023-05-09T08:20:04;100923.16;;;16.56;58.29
34237;BME280;20501;45.956;13.632;2023-05-09T08:22:32;100916.31;;;16.60;58.38
34237;BME280;20501;45.956;13.632;2023-05-09T08:24:57;100917.50;;;16.74;57.77
34237;BME280;20501;45.956;13.632;2023-05-09T08:27:22;100912.22;;;16.73;57.99
34237;BME280;20501;45.956;13.632;2023-05-09T08:29:48;100919.38;;;16.82;57.22
34237;BME280;20501;45.956;13.632;2023-05-09T08:32:13;100914.97;;;16.73;56.53
34237;BME280;20501;45.956;13.632;2023-05-09T08:34:39;100912.44;;;16.63;57.99
34237;BME280;20501;45.956;13.632;2023-05-09T08:37:04;100914.41;;;16.85;56.54
34237;BME280;20501;45.956;13.632;2023-05-09T08:39:30;100918.34;;;16.83;56.54
34237;BME280;20501;45.956;13.632;2023-05-09T08:42:00;100921.94;;;16.92;57.18
34237;BME280;20501;45.956;13.632;2023-05-09T08:44:28;100921.94;;;16.83;55.50
34237;BME280;20501;45.956;13.632;2023-05-09T08:46:57;100932.00;;;16.83;56.59
34237;BME280;20501;45.956;13.632;2023-05-09T08:49:23;100927.03;;;16.86;56.49
34237;BME280;20501;45.956;13.632;2023-05-09T08:51:50;100932.66;;;17.01;55.92
34237;BME280;20501;45.956;13.632;2023-05-09T08:54:16;100933.03;;;16.98;56.09
34237;BME280;20501;45.956;13.632;2023-05-09T08:56:42;100934.72;;;17.08;56.35
34237;BME280;20501;45.956;13.632;2023-05-09T08:59:08;100929.78;;;17.03;55.66
34237;BME280;20501;45.956;13.632;2023-05-09T09:01:34;100927.72;;;16.97;55.71
34237;BME280;20501;45.956;13.632;2023-05-09T09:04:05;100925.31;;;17.10;56.92
34237;BME280;20501;45.956;13.632;2023-05-09T09:06:32;100919.47;;;17.22;55.97
34237;BME280;20501;45.956;13.632;2023-05-09T09:08:59;100926.50;;;17.16;55.40
34237;BME280;20501;45.956;13.632;2023-05-09T09:11:25;100926.03;;;17.04;58.30
34237;BME280;20501;45.956;13.632;2023-05-09T09:13:53;100931.28;;;17.14;57.47
34237;BME280;20501;45.956;13.632;2023-05-09T09:16:21;100924.75;;;17.23;55.08
34237;BME280;20501;45.956;13.632;2023-05-09T09:18:48;100922.50;;;17.35;56.40
34237;BME280;20501;45.956;13.632;2023-05-09T09:21:17;100923.34;;;17.36;55.19
34237;BME280;20501;45.956;13.632;2023-05-09T09:23:45;100926.72;;;17.46;54.45
34237;BME280;20501;45.956;13.632;2023-05-09T09:26:12;100911.44;;;17.28;54.59
34237;BME280;20501;45.956;13.632;2023-05-09T09:28:37;100918.38;;;17.47;55.38
34237;BME280;20501;45.956;13.632;2023-05-09T09:31:21;100911.91;;;17.40;55.04
34237;BME280;20501;45.956;13.632;2023-05-09T09:33:47;100911.50;;;17.52;54.08
34237;BME280;20501;45.956;13.632;2023-05-09T09:36:12;100907.53;;;17.62;53.98
34237;BME280;20501;45.956;13.632;2023-05-09T09:38:41;100900.50;;;17.68;53.52
34237;BME280;20501;45.956;13.632;2023-05-09T09:41:11;100907.75;;;17.84;53.31
34237;BME280;20501;45.956;13.632;2023-05-09T09:43:37;100900.06;;;17.88;53.88
34237;BME280;20501;45.956;13.632;2023-05-09T09:46:03;100905.66;;;17.63;54.01
34237;BME280;20501;45.956;13.632;2023-05-09T09:48:33;100897.06;;;17.74;55.86
34237;BME280;20501;45.956;13.632;2023-05-09T09:51:07;100895.97;;;17.84;55.75
34237;BME280;20501;45.956;13.632;2023-05-09T09:53:41;100897.19;;;17.81;52.20
34237;BME280;20501;45.956;13.632;2023-05-09T09:56:07;100886.53;;;17.94;51.93
34237;BME280;20501;45.956;13.632;2023-05-09T09:58:33;100886.69;;;18.01;52.53
34237;BME280;20501;45.956;13.632;2023-05-09T10:01:09;100890.56;;;18.07;51.97
34237;BME280;20501;45.956;13.632;2023-05-09T10:03:43;100890.22;;;17.78;54.90
34237;BME280;20501;45.956;13.632;2023-05-09T10:06:13;100878.31;;;17.94;54.07
34237;BME280;20501;45.956;13.632;2023-05-09T10:08:40;100876.44;;;18.41;51.83
34237;BME280;20501;45.956;13.632;2023-05-09T10:11:06;100876.56;;;18.63;50.89
34237;BME280;20501;45.956;13.632;2023-05-09T10:13:36;100881.69;;;18.66;50.31
34237;BME280;20501;45.956;13.632;2023-05-09T10:16:03;100878.19;;;18.87;50.40
34237;BME280;20501;45.956;13.632;2023-05-09T10:18:29;100889.66;;;18.53;49.99
34237;BME280;20501;45.956;13.632;2023-05-09T10:20:56;100884.59;;;18.03;54.39
34237;BME280;20501;45.956;13.632;2023-05-09T10:23:25;100878.84;;;18.60;50.49
34237;BME280;20501;45.956;13.632;2023-05-09T10:26:16;100872.72;;;18.72;50.76
34237;BME280;20501;45.956;13.632;2023-05-09T10:28:44;100865.88;;;18.53;52.40
34237;BME280;20501;45.956;13.632;2023-05-09T10:31:27;100863.25;;;18.98;47.79
34237;BME280;20501;45.956;13.632;2023-05-09T10:33:53;100844.50;;;18.57;49.36
34237;BME280;20501;45.956;13.632;2023-05-09T10:36:21;100869.28;;;18.55;50.94
34237;BME280;20501;45.956;13.632;2023-05-09T10:38:49;100866.88;;;18.76;47.54
34237;BME280;20501;45.956;13.632;2023-05-09T10:41:15;100863.78;;;18.79;48.04
34237;BME280;20501;45.956;13.632;2023-05-09T10:43:41;100858.63;;;18.46;48.15
34237;BME280;20501;45.956;13.632;2023-05-09T10:46:08;100851.44;;;18.30;50.21
34237;BME280;20501;45.956;13.632;2023-05-09T10:48:35;100844.31;;;18.20;50.50
34237;BME280;20501;45.956;13.632;2023-05-09T10:51:02;100841.56;;;18.20;48.73
34237;BME280;20501;45.956;13.632;2023-05-09T10:56:07;100836.94;;;17.74;52.11
34237;BME280;20501;45.956;13.632;2023-05-09T10:58:33;100836.53;;;18.09;49.72
34237;BME280;20501;45.956;13.632;2023-05-09T11:01:02;100828.09;;;17.95;47.16
34237;BME280;20501;45.956;13.632;2023-05-09T11:03:50;100824.38;;;17.97;47.75
34237;BME280;20501;45.956;13.632;2023-05-09T11:22:03;100815.78;;;18.00;48.80
34237;BME280;20501;45.956;13.632;2023-05-09T11:24:36;100804.44;;;18.26;46.47
34237;BME280;20501;45.956;13.632;2023-05-09T11:27:04;100811.03;;;18.32;45.76
34237;BME280;20501;45.956;13.632;2023-05-09T11:29:42;100799.84;;;18.27;44.94
34237;BME280;20501;45.956;13.632;2023-05-09T11:32:12;100816.94;;;18.59;47.28
34237;BME280;20501;45.956;13.632;2023-05-09T11:34:42;100805.53;;;18.70;48.20
34237;BME280;20501;45.956;13.632;2023-05-09T11:37:16;100798.94;;;18.49;49.21
34237;BME280;20501;45.956;13.632;2023-05-09T11:40:01;100786.66;;;18.75;45.98
34237;BME280;20501;45.956;13.632;2023-05-09T11:42:29;100792.03;;;18.68;44.35
34237;BME280;20501;45.956;13.632;2023-05-09T11:44:58;100787.13;;;18.49;49.40
34237;BME280;20501;45.956;13.632;2023-05-09T11:47:24;100774.97;;;18.81;42.21
34237;BME280;20501;45.956;13.632;2023-05-09T11:49:50;100794.13;;;19.11;42.53
34237;BME280;20501;45.956;13.632;2023-05-09T11:52:18;100783.81;;;18.53;49.21
34237;BME280;20501;45.956;13.632;2023-05-09T11:54:43;100775.53;;;18.92;44.63
34237;BME280;20501;45.956;13.632;2023-05-09T11:57:09;100763.25;;;18.72;48.56
34237;BME280;20501;45.956;13.632;2023-05-09T11:59:37;100772.25;;;18.96;44.33
34237;BME280;20501;45.956;13.632;2023-05-09T12:02:06;100764.13;;;19.03;44.74
34237;BME280;20501;45.956;13.632;2023-05-09T12:04:32;100767.59;;;18.97;46.73
34237;BME280;20501;45.956;13.632;2023-05-09T12:06:59;100774.09;;;18.81;43.79
34237;BME280;20501;45.956;13.632;2023-05-09T12:09:34;100763.34;;;19.09;42.07
34237;BME280;20501;45.956;13.632;2023-05-09T12:12:11;100765.41;;;19.44;40.06
34237;BME280;20501;45.956;13.632;2023-05-09T12:14:38;100772.63;;;18.93;46.40
34237;BME280;20501;45.956;13.632;2023-05-09T12:17:05;100770.72;;;19.09;41.53
34237;BME280;20501;45.956;13.632;2023-05-09T12:19:31;100764.34;;;19.23;41.21
34237;BME280;20501;45.956;13.632;2023-05-09T12:21:58;100764.50;;;19.00;44.36
34237;BME280;20501;45.956;13.632;2023-05-09T12:24:27;100755.91;;;19.40;40.98
34237;BME280;20501;45.956;13.632;2023-05-09T12:26:56;100756.47;;;18.83;43.48
34237;BME280;20501;45.956;13.632;2023-05-09T12:29:24;100755.50;;;19.06;42.00
34237;BME280;20501;45.956;13.632;2023-05-09T12:31:52;100743.63;;;19.36;42.27
34237;BME280;20501;45.956;13.632;2023-05-09T12:34:18;100746.44;;;19.06;42.95
34237;BME280;20501;45.956;13.632;2023-05-09T12:36:44;100734.28;;;19.30;40.38
34237;BME280;20501;45.956;13.632;2023-05-09T12:39:19;100733.31;;;19.16;40.43
34237;BME280;20501;45.956;13.632;2023-05-09T12:41:49;100727.94;;;19.08;41.01
34237;BME280;20501;45.956;13.632;2023-05-09T12:44:22;100724.66;;;19.56;40.39
34237;BME280;20501;45.956;13.632;2023-05-09T12:46:59;100725.41;;;19.28;45.42
34237;BME280;20501;45.956;13.632;2023-05-09T12:49:25;100730.66;;;19.66;39.68
34237;BME280;20501;45.956;13.632;2023-05-09T12:51:52;100727.06;;;19.44;38.39
34237;BME280;20501;45.956;13.632;2023-05-09T12:54:25;100716.22;;;19.36;40.01
34237;BME280;20501;45.956;13.632;2023-05-09T12:56:51;100713.56;;;19.42;40.04
34237;BME280;20501;45.956;13.632;2023-05-09T12:59:22;100708.81;;;19.51;38.63
34237;BME280;20501;45.956;13.632;2023-05-09T13:01:58;100723.75;;;19.48;38.00
34237;BME280;20501;45.956;13.632;2023-05-09T13:04:26;100714.59;;;19.20;39.89
34237;BME280;20501;45.956;13.632;2023-05-09T13:06:56;100713.16;;;19.24;40.75
34237;BME280;20501;45.956;13.632;2023-05-09T13:09:23;100703.03;;;19.24;38.61